createdAt,value
2023-04-05T00:02:14.281Z,64.54
2023-04-05T00:04:52.535Z,64.55
2023-04-05T00:07:26.572Z,64.85
2023-04-05T00:09:58.658Z,65.13
2023-04-05T00:12:30.860Z,65.18
2023-04-05T00:15:04.811Z,64.88
2023-04-05T00:17:36.780Z,64.54
2023-04-05T00:20:11.583Z,64.10
2023-04-05T00:22:44.980Z,64.37
2023-04-05T00:25:17.554Z,64.36
2023-04-05T00:27:49.521Z,64.09
2023-04-05T00:30:21.886Z,63.84
2023-04-05T00:32:53.997Z,64.16
2023-04-05T00:35:28.227Z,63.97
2023-04-05T00:38:00.711Z,65.88
2023-04-05T00:40:33.117Z,65.69
2023-04-05T00:43:05.310Z,65.02
2023-04-05T00:45:37.442Z,65.06
2023-04-05T00:48:09.963Z,65.03
2023-04-05T00:50:43.478Z,65.70
2023-04-05T00:53:16.360Z,65.70
2023-04-05T00:55:53.247Z,65.87
2023-04-05T00:58:25.624Z,66.25
2023-04-05T01:01:06.817Z,66.15
2023-04-05T01:03:45.589Z,65.79
2023-04-05T01:06:45.405Z,66.47
2023-04-05T01:09:27.830Z,66.25
2023-04-05T01:12:04.298Z,66.48
2023-04-05T01:14:44.449Z,65.96
2023-04-05T01:17:22.365Z,65.75
2023-04-05T01:19:59.488Z,66.08
2023-04-05T01:23:06.341Z,65.96
2023-04-05T01:26:31.318Z,66.01
2023-04-05T01:29:23.948Z,65.37
2023-04-05T01:32:02.142Z,64.91
2023-04-05T01:34:42.164Z,65.22
2023-04-05T01:37:17.055Z,65.30
2023-04-05T01:39:50.792Z,65.84
2023-04-05T01:42:27.406Z,65.07
2023-04-05T01:45:00.520Z,65.63
2023-04-05T01:47:32.907Z,65.61
2023-04-05T01:50:05.209Z,65.48
2023-04-05T01:52:37.319Z,65.36
2023-04-05T01:55:10.296Z,66.43
2023-04-05T01:57:42.284Z,65.87
2023-04-05T02:00:16.294Z,65.91
2023-04-05T02:02:49.056Z,66.08
2023-04-05T02:05:21.216Z,66.88
2023-04-05T02:07:53.236Z,66.39
2023-04-05T02:10:26.045Z,66.46
2023-04-05T02:12:59.687Z,66.38
2023-04-05T02:15:34.215Z,66.92
2023-04-05T02:18:08.138Z,66.41
2023-04-05T02:20:40.459Z,65.93
2023-04-05T02:23:12.874Z,66.31
2023-04-05T02:25:45.000Z,65.91
2023-04-05T02:28:17.164Z,65.87
2023-04-05T02:30:49.131Z,66.17
2023-04-05T02:33:22.692Z,66.22
2023-04-05T02:35:57.122Z,66.65
2023-04-05T02:38:29.128Z,66.66
2023-04-05T02:41:01.229Z,66.56
2023-04-05T02:43:35.381Z,66.11
2023-04-05T02:46:07.642Z,66.04
2023-04-05T02:48:43.504Z,66.51
2023-04-05T02:51:16.364Z,66.70
2023-04-05T02:53:48.487Z,66.25
2023-04-05T02:56:22.229Z,66.47
2023-04-05T02:58:54.656Z,66.25
2023-04-05T03:01:29.517Z,66.56
2023-04-05T03:04:02.414Z,67.00
2023-04-05T03:06:36.063Z,66.88
2023-04-05T03:09:09.237Z,66.32
2023-04-05T03:11:42.299Z,66.34
2023-04-05T03:14:14.914Z,66.11
2023-04-05T03:16:50.763Z,66.10
2023-04-05T03:19:33.572Z,69.44
2023-04-05T03:22:14.622Z,70.31
2023-04-05T03:24:46.684Z,68.48
2023-04-05T03:27:20.090Z,68.42
2023-04-05T03:30:21.793Z,67.82
2023-04-05T03:33:01.516Z,67.71
2023-04-05T03:35:45.661Z,67.30
2023-04-05T03:38:18.285Z,67.14
2023-04-05T03:41:16.511Z,67.20
2023-04-05T03:43:49.089Z,66.85
2023-04-05T03:46:21.471Z,67.14
2023-04-05T03:48:53.839Z,69.30
2023-04-05T03:51:26.335Z,67.61
2023-04-05T03:53:58.412Z,67.43
2023-04-05T03:56:33.585Z,67.44
2023-04-05T03:59:14.142Z,67.35
2023-04-05T04:01:46.265Z,67.52
2023-04-05T04:04:18.349Z,67.36
2023-04-05T04:06:52.811Z,67.51
2023-04-05T04:09:30.012Z,67.65
2023-04-05T04:12:06.608Z,67.24
2023-04-05T04:14:41.143Z,67.75
2023-04-05T04:17:37.084Z,67.88
2023-04-05T04:20:30.401Z,67.79
2023-04-05T04:23:14.789Z,67.44
2023-04-05T04:25:59.280Z,67.28
2023-04-05T04:28:50.508Z,67.69
2023-04-05T04:31:28.582Z,67.95
2023-04-05T04:34:30.874Z,68.28
2023-04-05T04:37:37.762Z,68.13
2023-04-05T04:40:48.002Z,68.03
2023-04-05T04:43:29.209Z,68.89
2023-04-05T04:46:19.236Z,68.86
2023-04-05T04:49:06.176Z,68.35
2023-04-05T04:51:40.648Z,67.49
2023-04-05T04:54:13.389Z,67.14
2023-04-05T04:56:46.659Z,67.16
2023-04-05T04:59:18.751Z,67.47
2023-04-05T05:01:50.836Z,67.32
2023-04-05T05:04:23.071Z,68.07
2023-04-05T05:06:56.140Z,68.17
2023-04-05T05:09:28.111Z,67.94
2023-04-05T05:12:03.449Z,68.32
2023-04-05T05:14:35.483Z,68.46
2023-04-05T05:17:08.764Z,69.26
2023-04-05T05:19:41.510Z,70.39
2023-04-05T05:22:13.598Z,70.04
2023-04-05T05:24:46.753Z,69.55
2023-04-05T05:27:19.099Z,70.32
2023-04-05T05:29:51.364Z,70.08
2023-04-05T05:32:23.522Z,71.34
2023-04-05T05:34:55.575Z,72.15
2023-04-05T05:37:34.351Z,72.30
2023-04-05T05:40:07.446Z,71.79
2023-04-05T05:42:39.488Z,71.86
2023-04-05T05:45:13.585Z,71.28
2023-04-05T05:47:45.864Z,70.76
2023-04-05T05:50:20.790Z,70.42
2023-04-05T05:52:53.209Z,70.23
2023-04-05T05:55:25.272Z,69.45
2023-04-05T05:57:57.243Z,69.01
2023-04-05T06:00:29.289Z,68.61
2023-04-05T06:03:01.865Z,67.94
2023-04-05T06:05:34.057Z,68.46
2023-04-05T06:08:06.500Z,67.55
2023-04-05T06:10:40.601Z,67.54
2023-04-05T06:13:13.004Z,67.95
2023-04-05T06:15:45.267Z,67.00
2023-04-05T06:18:18.087Z,66.63
2023-04-05T06:20:50.170Z,66.48
2023-04-05T06:23:22.186Z,66.27
2023-04-05T06:25:54.465Z,65.94
2023-04-05T06:28:26.598Z,65.96
2023-04-05T06:30:59.469Z,65.73
2023-04-05T06:33:31.772Z,65.78
2023-04-05T06:36:03.970Z,65.39
2023-04-05T06:38:36.700Z,65.19
2023-04-05T06:41:08.806Z,65.08
2023-04-05T06:43:40.977Z,65.36
2023-04-05T06:46:13.955Z,64.97
2023-04-05T06:48:47.983Z,64.78
2023-04-05T06:51:20.222Z,64.92
2023-04-05T06:53:52.580Z,64.12
2023-04-05T06:56:24.688Z,64.27
2023-04-05T06:58:59.137Z,63.91
2023-04-05T07:01:32.009Z,64.26
2023-04-05T07:04:04.590Z,64.42
2023-04-05T07:06:39.168Z,64.23
2023-04-05T07:09:11.219Z,64.30
2023-04-05T07:11:43.298Z,63.85
2023-04-05T07:14:15.377Z,64.15
2023-04-05T07:16:48.641Z,63.56
2023-04-05T07:19:22.548Z,62.94
2023-04-05T07:21:55.233Z,62.78
2023-04-05T07:24:27.441Z,62.54
2023-04-05T07:26:59.611Z,62.75
2023-04-05T07:29:31.989Z,62.35
2023-04-05T07:32:04.686Z,62.00
2023-04-05T07:34:37.263Z,61.05
2023-04-05T07:37:09.632Z,60.69
2023-04-05T07:39:41.670Z,60.87
2023-04-05T07:42:13.762Z,60.85
2023-04-05T07:44:45.986Z,60.46
2023-04-05T07:47:18.133Z,60.44
2023-04-05T07:49:50.272Z,60.49
2023-04-05T07:52:22.303Z,60.53
2023-04-05T07:54:54.928Z,60.52
2023-04-05T07:57:27.584Z,60.51
2023-04-05T07:59:59.729Z,59.70
2023-04-05T08:02:31.982Z,60.15
2023-04-05T08:05:05.521Z,60.35
2023-04-05T08:07:37.869Z,59.98
2023-04-05T08:10:11.260Z,59.80
2023-04-05T08:12:43.257Z,59.45
2023-04-05T08:15:15.491Z,58.52
2023-04-05T08:17:47.575Z,59.97
2023-04-05T08:20:19.792Z,59.53
2023-04-05T08:22:52.091Z,59.45
2023-04-05T08:25:24.172Z,58.92
2023-04-05T08:27:56.432Z,58.61
2023-04-05T08:30:28.796Z,58.78
2023-04-05T08:33:01.202Z,57.99
2023-04-05T08:35:33.448Z,57.75
2023-04-05T08:38:06.902Z,57.46
2023-04-05T08:40:44.490Z,57.62
2023-04-05T08:43:36.267Z,57.08
2023-04-05T08:46:11.309Z,57.57
2023-04-05T08:48:43.530Z,56.51
2023-04-05T08:51:19.394Z,56.94
2023-04-05T08:53:51.868Z,56.52
2023-04-05T08:56:27.367Z,56.62
2023-04-05T08:59:05.866Z,55.23
2023-04-05T09:01:43.312Z,55.61
2023-04-05T09:04:19.091Z,54.76
2023-04-05T09:06:52.959Z,54.48
2023-04-05T09:09:25.813Z,54.33
2023-04-05T09:11:58.955Z,52.98
2023-04-05T09:14:34.671Z,53.22
2023-04-05T09:17:07.515Z,52.54
2023-04-05T09:19:39.513Z,52.17
2023-04-05T09:22:11.841Z,50.37
2023-04-05T09:24:47.413Z,50.93
2023-04-05T09:27:23.714Z,48.76
2023-04-05T09:30:22.238Z,48.78
2023-04-05T09:32:56.462Z,47.81
2023-04-05T09:35:31.310Z,47.97
2023-04-05T09:38:05.311Z,45.45
2023-04-05T09:40:47.769Z,45.34
2023-04-05T09:43:48.384Z,44.42
2023-04-05T09:46:32.804Z,45.24
2023-04-05T09:49:07.239Z,45.20
2023-04-05T09:51:40.668Z,44.45
2023-04-05T09:54:15.721Z,44.33
2023-04-05T09:56:58.491Z,43.18
2023-04-05T09:59:31.472Z,42.39
2023-04-05T10:02:04.200Z,42.92
2023-04-05T10:04:43.288Z,42.19
2023-04-05T10:07:18.604Z,41.14
2023-04-05T10:09:51.238Z,40.38
2023-04-05T10:12:28.132Z,40.51
2023-04-05T10:15:01.032Z,40.45
2023-04-05T10:17:39.782Z,40.95
2023-04-05T10:20:17.891Z,40.48
2023-04-05T10:23:00.986Z,38.18
2023-04-05T10:25:47.309Z,39.54
2023-04-05T10:28:30.376Z,38.69
2023-04-05T10:31:11.451Z,39.94
2023-04-05T10:33:49.031Z,40.11
2023-04-05T10:36:38.330Z,40.23
2023-04-05T10:39:15.094Z,39.35
2023-04-05T10:41:54.063Z,40.78
2023-04-05T10:44:27.063Z,39.83
2023-04-05T10:47:00.364Z,39.03
2023-04-05T10:49:39.533Z,39.21
2023-04-05T10:52:12.521Z,39.54
2023-04-05T10:54:46.142Z,39.01
2023-04-05T10:57:21.062Z,39.51
2023-04-05T10:59:55.016Z,39.66
2023-04-05T11:02:29.751Z,38.15
2023-04-05T11:05:06.986Z,37.41
2023-04-05T11:07:50.687Z,36.44
2023-04-05T11:10:24.511Z,36.90
2023-04-05T11:13:12.667Z,36.92
2023-04-05T11:15:44.772Z,37.08
2023-04-05T11:18:25.880Z,37.01
2023-04-05T11:21:10.822Z,35.77
2023-04-05T11:24:03.874Z,35.03
2023-04-05T11:26:54.338Z,35.32
2023-04-05T11:29:54.638Z,35.95
2023-04-05T11:32:39.671Z,35.70
2023-04-05T11:35:17.898Z,36.83
2023-04-05T11:38:10.413Z,36.52
2023-04-05T11:40:43.753Z,37.60
2023-04-05T11:43:16.324Z,37.69
2023-04-05T11:45:48.408Z,38.24
2023-04-05T11:48:23.603Z,38.39
2023-04-05T11:50:58.170Z,38.51
2023-04-05T11:53:30.182Z,38.26
2023-04-05T11:56:12.922Z,38.12
2023-04-05T11:58:45.900Z,38.33
2023-04-05T12:01:21.031Z,38.40
2023-04-05T12:03:58.658Z,38.73
2023-04-05T12:06:31.475Z,38.63
2023-04-05T12:09:08.302Z,38.13
2023-04-05T12:11:41.344Z,38.00
2023-04-05T12:14:13.746Z,37.43
2023-04-05T12:16:52.839Z,37.24
2023-04-05T12:19:31.139Z,36.92
2023-04-05T12:22:03.407Z,36.70
2023-04-05T12:24:35.829Z,36.83
2023-04-05T12:27:08.877Z,37.30
2023-04-05T12:29:41.843Z,38.07
2023-04-05T12:32:13.910Z,37.43
2023-04-05T12:34:50.908Z,38.27
2023-04-05T12:37:23.645Z,36.92
2023-04-05T12:39:57.328Z,37.32
2023-04-05T12:42:35.845Z,38.20
2023-04-05T12:45:12.728Z,37.92
2023-04-05T12:47:58.364Z,38.36
2023-04-05T12:50:32.458Z,37.95
2023-04-05T12:53:08.326Z,36.35
2023-04-05T12:55:51.971Z,36.38
2023-04-05T12:58:25.308Z,35.84
2023-04-05T13:00:57.434Z,35.22
2023-04-05T13:03:30.029Z,35.46
2023-04-05T13:06:02.504Z,36.29
2023-04-05T13:08:34.681Z,37.03
2023-04-05T13:11:06.805Z,36.98
2023-04-05T13:13:38.894Z,38.17
2023-04-05T13:16:11.099Z,38.94
2023-04-05T13:18:43.247Z,38.48
2023-04-05T13:21:15.585Z,39.02
2023-04-05T13:23:47.667Z,39.89
2023-04-05T13:26:19.731Z,39.99
2023-04-05T13:28:51.960Z,40.43
2023-04-05T13:31:24.173Z,39.75
2023-04-05T13:33:56.464Z,39.85
2023-04-05T13:36:28.777Z,40.26
2023-04-05T13:39:01.086Z,40.05
2023-04-05T13:41:33.440Z,40.13
2023-04-05T13:44:06.705Z,40.57
2023-04-05T13:46:39.097Z,40.49
2023-04-05T13:49:11.339Z,40.33
2023-04-05T13:51:43.560Z,40.54
2023-04-05T13:54:16.194Z,41.05
2023-04-05T13:56:48.268Z,40.96
2023-04-05T13:59:20.705Z,40.94
2023-04-05T14:01:54.844Z,40.89
2023-04-05T14:04:27.204Z,41.49
2023-04-05T14:06:59.238Z,40.89
2023-04-05T14:09:32.623Z,41.53
2023-04-05T14:12:04.852Z,41.58
2023-04-05T14:14:37.419Z,41.45
2023-04-05T14:17:11.730Z,41.45
2023-04-05T14:19:44.223Z,41.32
2023-04-05T14:22:19.593Z,41.19
2023-04-05T14:24:51.918Z,41.22
2023-04-05T14:27:27.173Z,41.51
2023-04-05T14:29:59.604Z,41.70
2023-04-05T14:32:33.800Z,42.05
2023-04-05T14:35:06.815Z,41.93
2023-04-05T14:37:39.049Z,42.23
2023-04-05T14:40:12.878Z,42.13
2023-04-05T14:42:49.613Z,42.20
2023-04-05T14:45:23.693Z,42.74
2023-04-05T14:47:56.302Z,42.26
2023-04-05T14:50:32.824Z,41.97
2023-04-05T14:53:05.163Z,42.23
2023-04-05T14:55:39.568Z,42.28
2023-04-05T14:58:18.187Z,41.88
2023-04-05T15:00:51.307Z,42.61
2023-04-05T15:03:24.044Z,43.00
2023-04-05T15:05:57.255Z,41.29
2023-04-05T15:08:29.803Z,38.37
2023-04-05T15:11:02.150Z,36.08
2023-04-05T15:13:34.505Z,32.46
2023-04-05T15:16:07.560Z,31.13
2023-04-05T15:18:40.344Z,29.88
2023-04-05T15:21:12.868Z,28.15
2023-04-05T15:23:45.267Z,27.59
2023-04-05T15:26:17.734Z,26.91
2023-04-05T15:28:50.174Z,24.78
2023-04-05T15:31:22.502Z,25.58
2023-04-05T15:33:54.736Z,25.00
2023-04-05T15:36:28.360Z,27.99
2023-04-05T15:39:01.250Z,27.75
2023-04-05T15:41:34.835Z,29.24
2023-04-05T15:44:07.632Z,30.01
2023-04-05T15:46:40.072Z,31.21
2023-04-05T15:49:14.700Z,32.09
2023-04-05T15:51:48.677Z,31.69
2023-04-05T15:54:21.296Z,32.55
2023-04-05T15:56:53.503Z,33.35
2023-04-05T15:59:25.950Z,34.10
2023-04-05T16:01:58.520Z,34.68
2023-04-05T16:04:30.967Z,35.17
2023-04-05T16:07:03.386Z,35.39
2023-04-05T16:09:35.879Z,36.09
2023-04-05T16:12:08.554Z,36.51
2023-04-05T16:14:41.327Z,37.14
2023-04-05T16:17:13.662Z,37.45
2023-04-05T16:19:45.921Z,38.18
2023-04-05T16:22:18.319Z,38.59
2023-04-05T16:24:51.100Z,39.56
2023-04-05T16:27:23.351Z,40.20
2023-04-05T16:29:55.765Z,40.23
2023-04-05T16:32:28.081Z,39.93
2023-04-05T16:35:00.639Z,40.23
2023-04-05T16:37:32.933Z,40.31
2023-04-05T16:40:05.661Z,40.97
2023-04-05T16:42:38.028Z,41.56
2023-04-05T16:45:12.485Z,41.61
2023-04-05T16:47:44.921Z,41.83
2023-04-05T16:50:17.225Z,41.53
2023-04-05T16:52:49.687Z,42.49
2023-04-05T16:55:22.118Z,43.16
2023-04-05T16:57:57.060Z,43.61
2023-04-05T17:00:29.397Z,44.63
2023-04-05T17:03:02.177Z,45.24
2023-04-05T17:05:34.882Z,45.54
2023-04-05T17:08:07.826Z,45.74
2023-04-05T17:10:40.515Z,46.16
2023-04-05T17:13:12.885Z,46.41
2023-04-05T17:15:45.587Z,46.43
2023-04-05T17:18:18.339Z,47.44
2023-04-05T17:20:51.248Z,47.10
2023-04-05T17:23:24.914Z,47.89
2023-04-05T17:25:58.167Z,47.62
2023-04-05T17:28:31.756Z,48.32
2023-04-05T17:31:05.008Z,48.97
2023-04-05T17:33:37.931Z,48.45
2023-04-05T17:36:10.591Z,51.07
2023-04-05T17:38:42.934Z,50.02
2023-04-05T17:41:16.185Z,49.57
2023-04-05T17:43:49.358Z,50.03
2023-04-05T17:46:33.900Z,50.70
2023-04-05T17:49:13.411Z,51.02
2023-04-05T17:51:46.158Z,50.84
2023-04-05T17:54:18.378Z,50.66
2023-04-05T17:56:52.054Z,49.92
2023-04-05T17:59:24.415Z,49.96
2023-04-05T18:01:56.862Z,50.61
2023-04-05T18:04:30.100Z,50.88
2023-04-05T18:07:02.822Z,51.89
2023-04-05T18:09:37.551Z,52.23
2023-04-05T18:12:10.326Z,52.34
2023-04-05T18:14:42.790Z,54.22
2023-04-05T18:17:15.485Z,52.39
2023-04-05T18:19:49.583Z,53.62
2023-04-05T18:22:22.076Z,55.28
2023-04-05T18:24:54.641Z,53.52
2023-04-05T18:27:27.485Z,54.21
2023-04-05T18:30:00.276Z,53.61
2023-04-05T18:32:33.142Z,53.51
2023-04-05T18:35:06.387Z,52.89
2023-04-05T18:37:39.121Z,53.44
2023-04-05T18:40:13.100Z,53.50
2023-04-05T18:42:46.491Z,54.83
2023-04-05T18:45:19.085Z,54.98
2023-04-05T18:47:51.571Z,53.87
2023-04-05T18:50:24.111Z,54.20
2023-04-05T18:52:56.340Z,55.45
2023-04-05T18:55:29.174Z,53.87
2023-04-05T18:58:02.968Z,55.31
2023-04-05T19:00:36.172Z,55.41
2023-04-05T19:03:08.997Z,54.80
2023-04-05T19:05:41.393Z,55.31
2023-04-05T19:08:14.447Z,55.20
2023-04-05T19:10:47.075Z,55.24
2023-04-05T19:13:19.222Z,55.83
2023-04-05T19:15:51.509Z,55.65
2023-04-05T19:18:27.890Z,55.99
2023-04-05T19:21:03.294Z,55.51
2023-04-05T19:23:35.660Z,56.54
2023-04-05T19:26:08.260Z,56.55
2023-04-05T19:28:40.972Z,56.66
2023-04-05T19:31:16.757Z,56.47
2023-04-05T19:33:50.410Z,57.22
2023-04-05T19:36:22.683Z,55.74
2023-04-05T19:38:54.937Z,55.83
2023-04-05T19:41:32.661Z,56.07
2023-04-05T19:44:11.825Z,56.32
2023-04-05T19:46:44.213Z,56.82
2023-04-05T19:49:30.033Z,57.05
2023-04-05T19:52:02.373Z,56.67
2023-04-05T19:54:34.733Z,57.57
2023-04-05T19:57:09.968Z,57.12
2023-04-05T19:59:42.268Z,58.18
2023-04-05T20:02:28.650Z,58.39
2023-04-05T20:05:01.579Z,58.54
2023-04-05T20:07:34.475Z,58.42
2023-04-05T20:10:17.253Z,58.54
2023-04-05T20:12:50.764Z,57.31
2023-04-05T20:15:37.644Z,56.47
2023-04-05T20:18:13.284Z,60.68
2023-04-05T20:20:47.272Z,58.82
2023-04-05T20:23:23.332Z,64.00
2023-04-05T20:25:56.416Z,65.51
2023-04-05T20:28:39.267Z,61.85
2023-04-05T20:31:14.073Z,63.64
2023-04-05T20:33:51.426Z,61.49
2023-04-05T20:36:25.221Z,60.38
2023-04-05T20:38:57.587Z,60.16
2023-04-05T20:41:31.574Z,60.58
2023-04-05T20:44:04.031Z,60.25
2023-04-05T20:46:36.637Z,58.89
2023-04-05T20:49:09.461Z,59.15
2023-04-05T20:51:43.132Z,60.18
2023-04-05T20:54:16.306Z,60.06
2023-04-05T20:56:48.545Z,59.99
2023-04-05T20:59:21.108Z,59.59
2023-04-05T21:01:53.372Z,59.49
2023-04-05T21:04:27.471Z,61.33
2023-04-05T21:07:00.964Z,59.86
2023-04-05T21:09:33.133Z,60.18
2023-04-05T21:12:06.171Z,59.65
2023-04-05T21:14:38.405Z,60.27
2023-04-05T21:17:10.618Z,60.18
2023-04-05T21:19:42.906Z,60.01
2023-04-05T21:22:15.127Z,60.26
2023-04-05T21:24:47.366Z,60.34
2023-04-05T21:27:19.694Z,64.47
2023-04-05T21:29:51.992Z,62.74
2023-04-05T21:32:24.188Z,62.17
2023-04-05T21:34:56.428Z,62.16
2023-04-05T21:37:28.627Z,62.26
2023-04-05T21:40:02.613Z,62.21
2023-04-05T21:42:34.985Z,62.25
2023-04-05T21:45:09.046Z,64.05
2023-04-05T21:47:41.487Z,63.76
2023-04-05T21:50:13.919Z,66.32
2023-04-05T21:52:46.816Z,66.88
2023-04-05T21:55:19.104Z,64.35
2023-04-05T21:57:51.701Z,63.37
2023-04-05T22:00:24.193Z,63.15
2023-04-05T22:02:56.385Z,62.82
2023-04-05T22:05:36.982Z,63.97
2023-04-05T22:08:10.717Z,65.06
2023-04-05T22:10:43.966Z,63.63
2023-04-05T22:13:16.237Z,63.15
2023-04-05T22:15:48.784Z,62.64
2023-04-05T22:18:20.965Z,63.37
2023-04-05T22:20:53.164Z,63.01
2023-04-05T22:23:25.505Z,63.31
2023-04-05T22:25:57.829Z,64.10
2023-04-05T22:28:30.108Z,63.14
2023-04-05T22:31:02.346Z,63.30
2023-04-05T22:33:34.763Z,63.48
2023-04-05T22:36:09.412Z,63.72
2023-04-05T22:38:41.661Z,63.36
2023-04-05T22:41:13.883Z,64.07
2023-04-05T22:43:46.073Z,64.07
2023-04-05T22:46:18.851Z,63.91
2023-04-05T22:48:51.101Z,65.56
2023-04-05T22:51:23.341Z,64.59
2023-04-05T22:53:55.464Z,65.05
2023-04-05T22:56:27.941Z,65.94
2023-04-05T22:59:00.148Z,66.66
2023-04-05T23:01:32.408Z,65.03
2023-04-05T23:04:04.544Z,65.42
2023-04-05T23:06:36.722Z,64.84
2023-04-05T23:09:09.162Z,64.62
2023-04-05T23:11:41.643Z,64.48
2023-04-05T23:14:13.841Z,64.17
2023-04-05T23:16:46.387Z,64.36
2023-04-05T23:19:18.714Z,64.19
2023-04-05T23:21:51.015Z,64.35
2023-04-05T23:24:23.202Z,64.13
2023-04-05T23:26:55.364Z,64.06
2023-04-05T23:29:27.713Z,64.59
2023-04-05T23:31:59.832Z,64.63
2023-04-05T23:34:32.066Z,63.88
2023-04-05T23:37:04.263Z,63.77
2023-04-05T23:39:36.982Z,64.36
2023-04-05T23:42:09.658Z,64.37
2023-04-05T23:44:42.227Z,64.40
2023-04-05T23:47:14.878Z,64.13
2023-04-05T23:49:47.208Z,63.95
2023-04-05T23:52:19.351Z,64.06
2023-04-05T23:54:51.562Z,64.10
2023-04-05T23:57:24.341Z,64.37
2023-04-05T23:59:56.826Z,64.52
